| time (UTC) | temp C | wind direction | speed KPH | gust KPH | rain 1hr cm | rain 24hr cm | rain mn cm | humidity % | barometer mb |
| 20260505223603 | 10 | 4 | 9.7 | 22.5 | 0.00 | 0.00 | 0.00 | 77 | 1009.9 |
| 20260505222918 | 10 | 6 | 9.7 | 19.3 | 0.00 | 0.00 | 0.00 | 77 | 1009.9 |
| 20260505221803 | 11 | 8 | 11.3 | 24.1 | 0.00 | 0.00 | 0.00 | 77 | 1009.9 |
| 20260505220903 | 11 | 4 | 9.7 | 20.9 | 0.00 | 0.00 | 0.00 | 77 | 1009.9 |
| 20260505220218 | 11 | 10 | 9.7 | 20.9 | 0.00 | 0.00 | 0.00 | 77 | 1009.9 |
| 20260505215403 | 11 | 8 | 9.7 | 19.3 | 0.00 | 0.00 | 0.00 | 77 | 1009.9 |
| 20260505214503 | 11 | 5 | 9.7 | 19.3 | 0.00 | 0.00 | 0.00 | 77 | 1009.9 |
| 20260505213603 | 11 | 8 | 9.7 | 17.7 | 0.00 | 0.00 | 0.00 | 77 | 1009.9 |
| 20260505212703 | 11 | 9 | 9.7 | 20.9 | 0.00 | 0.00 | 0.00 | 77 | 1009.9 |
| 20260505211803 | 11 | 12 | 9.7 | 19.3 | 0.00 | 0.00 | 0.00 | 77 | 1009.9 |
| 20260505210903 | 11 | 10 | 11.3 | 19.3 | 0.00 | 0.00 | 0.00 | 76 | 1010.0 |
| 20260505210003 | 11 | 12 | 11.3 | 24.1 | 0.00 | 0.00 | 0.00 | 76 | 1009.9 |
| 20260505205403 | 12 | 16 | 9.7 | 22.5 | 0.00 | 0.00 | 0.00 | 76 | 1010.0 |
| 20260505204503 | 12 | 15 | 11.3 | 22.5 | 0.00 | 0.00 | 0.00 | 76 | 1010.0 |
| 20260505203603 | 11 | 359 | 6.4 | 20.9 | 0.00 | 0.00 | 0.00 | 77 | 1009.9 |
| 20260505202703 | 11 | 358 | 4.8 | 16.1 | 0.00 | 0.00 | 0.00 | 79 | 1009.9 |
| 20260505201803 | 12 | 347 | 6.4 | 14.5 | 0.00 | 0.00 | 0.00 | 79 | 1009.8 |
| 20260505201117 | 12 | 349 | 6.4 | 17.7 | 0.00 | 0.00 | 0.00 | 79 | 1009.7 |
| 20260505200003 | 12 | 350 | 6.4 | 14.5 | 0.00 | 0.00 | 0.00 | 79 | 1009.6 |
| 20260505195616 | 12 | 353 | 6.4 | 14.5 | 0.00 | 0.00 | 0.00 | 79 | 1009.6 |
| 20260505194503 | 12 | 355 | 8.0 | 16.1 | 0.00 | 0.00 | 0.00 | 78 | 1009.6 |
| 20260505193817 | 12 | 350 | 6.4 | 19.3 | 0.00 | 0.00 | 0.00 | 77 | 1009.5 |
| 20260505192703 | 12 | 350 | 6.4 | 16.1 | 0.00 | 0.00 | 0.00 | 77 | 1009.5 |
| 20260505191803 | 12 | 352 | 6.4 | 14.5 | 0.00 | 0.00 | 0.00 | 76 | 1009.4 |
| 20260505190903 | 12 | 357 | 4.8 | 11.3 | 0.00 | 0.00 | 0.00 | 73 | 1009.4 |
| 20260505190004 | 12 | 1 | 6.4 | 12.9 | 0.00 | 0.00 | 0.00 | 75 | 1009.4 |
| 20260505185403 | 13 | 2 | 6.4 | 12.9 | 0.00 | 0.00 | 0.00 | 74 | 1009.4 |
| 20260505184503 | 13 | 11 | 8.0 | 20.9 | 0.00 | 0.00 | 0.00 | 70 | 1009.3 |
| 20260505183603 | 13 | 10 | 8.0 | 20.9 | 0.00 | 0.00 | 0.00 | 64 | 1009.2 |
| 20260505182703 | 13 | 357 | 8.0 | 17.7 | 0.00 | 0.00 | 0.00 | 68 | 1009.2 |
| 20260505181803 | 13 | 357 | 8.0 | 19.3 | 0.00 | 0.00 | 0.00 | 71 | 1009.2 |
| 20260505180903 | 13 | 356 | 8.0 | 19.3 | 0.00 | 0.00 | 0.00 | 70 | 1009.1 |
| 20260505180003 | 13 | 1 | 8.0 | 17.7 | 0.00 | 0.00 | 0.00 | 72 | 1009.1 |
| 20260505175403 | 13 | 1 | 8.0 | 16.1 | 0.00 | 0.00 | 0.00 | 71 | 1009.0 |
| 20260505174503 | 14 | 359 | 6.4 | 14.5 | 0.00 | 0.00 | 0.00 | 72 | 1009.0 |
| 20260505173818 | 14 | 351 | 6.4 | 14.5 | 0.00 | 0.00 | 0.00 | 72 | 1008.9 |
| 20260505172703 | 14 | 359 | 9.7 | 19.3 | 0.00 | 0.00 | 0.00 | 71 | 1008.8 |
| 20260505171803 | 14 | 1 | 9.7 | 20.9 | 0.00 | 0.00 | 0.00 | 68 | 1008.9 |
| 20260505170903 | 15 | 359 | 11.3 | 24.1 | 0.00 | 0.00 | 0.00 | 68 | 1008.9 |
| 20260505170003 | 15 | 8 | 11.3 | 20.9 | 0.00 | 0.00 | 0.00 | 62 | 1008.8 |
| 20260505165403 | 15 | 12 | 11.3 | 20.9 | 0.00 | 0.00 | 0.00 | 63 | 1008.9 |
| 20260505164503 | 15 | 20 | 9.7 | 16.1 | 0.00 | 0.00 | 0.00 | 63 | 1009.0 |
| 20260505163603 | 15 | 19 | 9.7 | 17.7 | 0.00 | 0.00 | 0.00 | 63 | 1009.1 |
| 20260505162703 | 15 | 22 | 9.7 | 17.7 | 0.00 | 0.00 | 0.00 | 63 | 1009.1 |
| 20260505161803 | 15 | 19 | 9.7 | 17.7 | 0.00 | 0.00 | 0.00 | 64 | 1009.0 |
| 20260505160903 | 15 | 12 | 11.3 | 20.9 | 0.00 | 0.00 | 0.00 | 61 | 1009.1 |
| 20260505152703 | 15 | 10 | 8.0 | 17.7 | 0.00 | 0.00 | 0.00 | 68 | 1009.3 |
| 20260505151803 | 15 | 17 | 8.0 | 17.7 | 0.00 | 0.00 | 0.00 | 69 | 1009.3 |
| 20260505150903 | 15 | 27 | 8.0 | 19.3 | 0.00 | 0.00 | 0.00 | 70 | 1009.4 |
| 20260505124503 | 13 | 40 | 3.2 | 11.3 | 0.00 | 0.00 | 0.00 | 79 | 1010.3 |
| 20260505123603 | 13 | 58 | 4.8 | 17.7 | 0.00 | 0.00 | 0.00 | 79 | 1010.3 |
| 20260505122918 | 13 | 74 | 4.8 | 14.5 | 0.00 | 0.00 | 0.00 | 80 | 1010.4 |
| 20260505122017 | 13 | 63 | 6.4 | 14.5 | 0.00 | 0.00 | 0.00 | 80 | 1010.4 |
| 20260505120903 | 13 | 52 | 4.8 | 12.9 | 0.00 | 0.00 | 0.00 | 80 | 1010.4 |
| 20260505120218 | 12 | 48 | 6.4 | 17.7 | 0.00 | 0.00 | 0.00 | 81 | 1010.4 |
| 20260505115403 | 12 | 33 | 6.4 | 16.1 | 0.00 | 0.00 | 0.00 | 80 | 1010.5 |
| 20260505114717 | 12 | 35 | 8.0 | 16.1 | 0.00 | 0.00 | 0.00 | 81 | 1010.5 |
| 20260505113603 | 12 | 26 | 9.7 | 16.1 | 0.00 | 0.00 | 0.00 | 80 | 1010.6 |
| 20260505112703 | 12 | 30 | 8.0 | 16.1 | 0.00 | 0.00 | 0.00 | 82 | 1010.7 |
| 20260505111803 | 12 | 28 | 9.7 | 17.7 | 0.00 | 0.00 | 0.00 | 82 | 1010.7 |
| 20260505111118 | 12 | 22 | 11.3 | 19.3 | 0.00 | 0.00 | 0.00 | 82 | 1010.6 |
| 20260505101803 | 12 | 12 | 11.3 | 20.9 | 0.00 | 0.00 | 0.00 | 84 | 1011.0 |
| 20260505100903 | 11 | 9 | 9.7 | 17.7 | 0.00 | 0.00 | 0.00 | 86 | 1011.0 |
| 20260505100003 | 11 | 14 | 11.3 | 17.7 | 0.00 | 0.00 | 0.00 | 86 | 1011.0 |
| 20260505095403 | 11 | 18 | 9.7 | 17.7 | 0.00 | 0.00 | 0.00 | 86 | 1011.0 |
| 20260505094718 | 11 | 15 | 8.0 | 17.7 | 0.00 | 0.00 | 0.00 | 86 | 1011.0 |
| 20260505093603 | 11 | 16 | 11.3 | 17.7 | 0.00 | 0.00 | 0.00 | 86 | 1011.1 |
| 20260505092703 | 11 | 11 | 8.0 | 17.7 | 0.00 | 0.00 | 0.00 | 86 | 1011.1 |
| 20260505091803 | 11 | 13 | 9.7 | 19.3 | 0.00 | 0.00 | 0.00 | 87 | 1011.1 |
| 20260505091117 | 11 | 9 | 9.7 | 19.3 | 0.00 | 0.00 | 0.00 | 86 | 1011.1 |
| 20260505090003 | 11 | 11 | 8.0 | 16.1 | 0.00 | 0.00 | 0.00 | 86 | 1011.1 |
| 20260505085619 | 11 | 16 | 9.7 | 19.3 | 0.00 | 0.00 | 0.00 | 86 | 1011.2 |
| 20260505084503 | 11 | 3 | 9.7 | 17.7 | 0.00 | 0.00 | 0.00 | 86 | 1011.2 |
| 20260505083603 | 11 | 16 | 9.7 | 16.1 | 0.00 | 0.00 | 0.00 | 87 | 1011.3 |
| 20260505082703 | 11 | 360 | 8.0 | 17.7 | 0.00 | 0.00 | 0.00 | 87 | 1011.3 |
| 20260505081803 | 11 | 355 | 8.0 | 16.1 | 0.00 | 0.00 | 0.00 | 87 | 1011.4 |
| 20260505081117 | 11 | 3 | 8.0 | 16.1 | 0.00 | 0.00 | 0.00 | 87 | 1011.4 |
| 20260505080003 | 11 | 6 | 9.7 | 19.3 | 0.00 | 0.00 | 0.00 | 87 | 1011.3 |
| 20260505075403 | 11 | 13 | 8.0 | 19.3 | 0.00 | 0.00 | 0.00 | 87 | 1011.3 |
| 20260505074503 | 11 | 6 | 9.7 | 22.5 | 0.00 | 0.00 | 0.00 | 87 | 1011.3 |
| 20260505073603 | 11 | 13 | 9.7 | 19.3 | 0.00 | 0.00 | 0.00 | 87 | 1011.1 |
| 20260505072703 | 11 | 12 | 9.7 | 20.9 | 0.00 | 0.00 | 0.00 | 87 | 1011.1 |
| 20260505071803 | 10 | 9 | 9.7 | 19.3 | 0.00 | 0.00 | 0.00 | 87 | 1011.1 |
| 20260505070903 | 10 | 4 | 8.0 | 17.7 | 0.00 | 0.00 | 0.00 | 88 | 1011.1 |
| 20260505070218 | 10 | 358 | 8.0 | 17.7 | 0.00 | 0.00 | 0.00 | 88 | 1011.2 |
| 20260505065403 | 10 | 2 | 9.7 | 19.3 | 0.00 | 0.00 | 0.00 | 87 | 1011.2 |
| 20260505064503 | 10 | 4 | 8.0 | 14.5 | 0.00 | 0.00 | 0.00 | 87 | 1011.3 |
| 20260505063818 | 10 | 7 | 9.7 | 20.9 | 0.00 | 0.00 | 0.00 | 88 | 1011.4 |
| 20260505062703 | 10 | 360 | 6.4 | 16.1 | 0.00 | 0.00 | 0.00 | 88 | 1011.6 |
| 20260505061803 | 10 | 357 | 8.0 | 14.5 | 0.00 | 0.00 | 0.00 | 87 | 1011.5 |
| 20260505061116 | 10 | 359 | 8.0 | 17.7 | 0.00 | 0.00 | 0.00 | 87 | 1011.5 |
| 20260505060003 | 10 | 356 | 8.0 | 17.7 | 0.00 | 0.00 | 0.00 | 88 | 1011.4 |
| 20260505055403 | 10 | 348 | 8.0 | 16.1 | 0.00 | 0.00 | 0.00 | 88 | 1011.4 |
| 20260505054503 | 10 | 359 | 6.4 | 14.5 | 0.00 | 0.00 | 0.00 | 88 | 1011.4 |
| 20260505053818 | 10 | 356 | 8.0 | 14.5 | 0.00 | 0.00 | 0.00 | 88 | 1011.5 |
| 20260505052917 | 10 | 357 | 6.4 | 16.1 | 0.00 | 0.00 | 0.00 | 88 | 1011.5 |
| 20260505051803 | 10 | 348 | 6.4 | 12.9 | 0.00 | 0.00 | 0.00 | 89 | 1011.6 |
| 20260505050903 | 10 | 350 | 6.4 | 14.5 | 0.00 | 0.00 | 0.00 | 89 | 1011.6 |
| 20260505040903 | 11 | 352 | 6.4 | 14.5 | 0.00 | 0.00 | 0.00 | 87 | 1011.4 |
| 20260505040003 | 11 | 359 | 6.4 | 14.5 | 0.00 | 0.00 | 0.00 | 87 | 1011.4 |
| 20260505035403 | 11 | 360 | 6.4 | 14.5 | 0.00 | 0.00 | 0.00 | 87 | 1011.4 |
| 20260505034503 | 11 | 9 | 8.0 | 16.1 | 0.00 | 0.00 | 0.00 | 87 | 1011.4 |
| 20260505033603 | 11 | 9 | 6.4 | 12.9 | 0.00 | 0.00 | 0.00 | 87 | 1011.5 |
| 20260505032918 | 11 | 10 | 6.4 | 12.9 | 0.00 | 0.00 | 0.00 | 87 | 1011.5 |
| 20260505031803 | 11 | 13 | 6.4 | 14.5 | 0.00 | 0.00 | 0.00 | 86 | 1011.5 |
| 20260505030903 | 11 | 2 | 8.0 | 17.7 | 0.00 | 0.00 | 0.00 | 86 | 1011.5 |
| 20260505030003 | 11 | 4 | 8.0 | 14.5 | 0.00 | 0.00 | 0.00 | 86 | 1011.6 |
| 20260505025403 | 11 | 360 | 6.4 | 14.5 | 0.00 | 0.00 | 0.00 | 86 | 1011.6 |
| 20260505024503 | 11 | 6 | 8.0 | 19.3 | 0.00 | 0.00 | 0.00 | 85 | 1011.5 |
| 20260505023603 | 11 | 6 | 8.0 | 16.1 | 0.00 | 0.00 | 0.00 | 85 | 1011.5 |
| 20260505022918 | 12 | 7 | 8.0 | 16.1 | 0.00 | 0.00 | 0.00 | 85 | 1011.5 |
| 20260505021803 | 12 | 355 | 8.0 | 19.3 | 0.00 | 0.00 | 0.00 | 85 | 1011.5 |
| 20260505020903 | 12 | 3 | 8.0 | 16.1 | 0.00 | 0.00 | 0.00 | 85 | 1011.5 |
| 20260505020004 | 12 | 358 | 8.0 | 17.7 | 0.00 | 0.00 | 0.00 | 85 | 1011.6 |
| 20260505015403 | 12 | 358 | 6.4 | 17.7 | 0.00 | 0.00 | 0.00 | 85 | 1011.6 |
| 20260505014503 | 12 | 353 | 8.0 | 14.5 | 0.00 | 0.00 | 0.00 | 85 | 1011.6 |
| 20260505013603 | 12 | 359 | 9.7 | 19.3 | 0.00 | 0.00 | 0.00 | 85 | 1011.6 |
| 20260505012918 | 12 | 356 | 8.0 | 19.3 | 0.00 | 0.00 | 0.00 | 86 | 1011.7 |
| 20260505011803 | 12 | 353 | 6.4 | 14.5 | 0.00 | 0.00 | 0.00 | 87 | 1011.7 |
| 20260505010903 | 12 | 353 | 6.4 | 14.5 | 0.00 | 0.00 | 0.00 | 87 | 1011.7 |
| 20260505010003 | 12 | 350 | 4.8 | 12.9 | 0.00 | 0.00 | 0.00 | 87 | 1011.7 |
| 20260505005403 | 12 | 356 | 6.4 | 11.3 | 0.00 | 0.00 | 0.00 | 87 | 1011.8 |
| 20260505004503 | 12 | 351 | 4.8 | 14.5 | 0.00 | 0.00 | 0.00 | 87 | 1011.9 |
| 20260505003603 | 12 | 354 | 6.4 | 16.1 | 0.00 | 0.00 | 0.00 | 87 | 1012.0 |
| 20260505002703 | 12 | 351 | 8.0 | 14.5 | 0.00 | 0.00 | 0.00 | 87 | 1012.0 |
| 20260505002017 | 12 | 356 | 9.7 | 19.3 | 0.00 | 0.00 | 0.00 | 87 | 1011.9 |
| 20260505001118 | 12 | 352 | 8.0 | 17.7 | 0.00 | 0.00 | 0.00 | 88 | 1011.9 |
| 20260505000003 | 12 | 350 | 6.4 | 16.1 | 0.00 | 0.00 | 0.00 | 88 | 1012.1 |
| 20260504235403 | 12 | 351 | 8.0 | 16.1 | 0.00 | 0.00 | 0.00 | 88 | 1012.1 |
| 20260504234503 | 12 | 350 | 6.4 | 16.1 | 0.00 | 0.00 | 0.00 | 88 | 1012.2 |
| 20260504233603 | 12 | 340 | 6.4 | 14.5 | 0.00 | 0.00 | 0.00 | 88 | 1012.3 |
| 20260504232703 | 12 | 340 | 6.4 | 16.1 | 0.00 | 0.00 | 0.00 | 88 | 1012.4 |
| 20260504231803 | 12 | 339 | 6.4 | 19.3 | 0.00 | 0.00 | 0.00 | 88 | 1012.4 |
| 20260504230903 | 12 | 341 | 6.4 | 16.1 | 0.00 | 0.00 | 0.00 | 88 | 1012.4 |
| 20260504230217 | 12 | 339 | 6.4 | 16.1 | 0.00 | 0.00 | 0.00 | 88 | 1012.4 |
| 20260504225403 | 12 | 341 | 8.0 | 20.9 | 0.00 | 0.00 | 0.00 | 88 | 1012.3 |
| 20260504224503 | 12 | 341 | 6.4 | 14.5 | 0.00 | 0.00 | 0.00 | 88 | 1012.5 |